Time;durP1;ratioP1;P1;durP2;ratioP2;P2;SDS_P1;SDS_P2;PMS_P1;PMS_P2;Temp;Humidity;BMP_temperature;BMP_pressure;BME280_temperature;BME280_humidity;BME280_pressure;Samples;Min_cycle;Max_cycle;Signal;HPM_P1;HPM_P2
2022/04/12 00:02:16;;;;;;;0.10;0.10;;;;;;;;;;5072430;28;20037;-62
2022/04/12 00:04:41;;;;;;;0.10;0.10;;;;;;;;;;5072449;28;20033;-61
2022/04/12 00:07:07;;;;;;;0.10;0.10;;;;;;;;;;5072501;28;20028;-61
2022/04/12 00:09:32;;;;;;;0.15;0.15;;;;;;;;;;5072220;28;20377;-61
2022/04/12 00:11:58;;;;;;;0.10;0.10;;;;;;;;;;5037816;28;20028;-60
2022/04/12 00:14:24;;;;;;;0.22;0.22;;;;;;;;;;5054605;28;20044;-60
2022/04/12 00:19:02;;;;;;;0.10;0.10;;;;;;;;;;5072298;28;20120;-61
2022/04/12 00:19:35;;;;;;;0.10;0.10;;;;;;;;;;5072295;28;20032;-62
2022/04/12 00:22:00;;;;;;;0.00;0.00;;;;;;;;;;5072364;28;20048;-61
2022/04/12 00:24:25;;;;;;;0.10;0.10;;;;;;;;;;5072239;28;20491;-62
2022/04/12 00:26:51;;;;;;;0.08;0.08;;;;;;;;;;5072320;28;20032;-61
2022/04/12 00:29:16;;;;;;;0.10;0.10;;;;;;;;;;5037735;28;20037;-61
2022/04/12 00:31:42;;;;;;;0.60;0.60;;;;;;;;;;5072009;28;20020;-61
2022/04/12 00:34:07;;;;;;;0.10;0.10;;;;;;;;;;5054178;28;20467;-61
2022/04/12 00:36:33;;;;;;;0.20;0.20;;;;;;;;;;5054042;28;20029;-61
2022/04/12 00:38:58;;;;;;;0.10;0.10;;;;;;;;;;5054240;28;20036;-61
2022/04/12 00:41:24;;;;;;;0.10;0.10;;;;;;;;;;5071143;28;20024;-61
2022/04/12 00:43:50;;;;;;;0.10;0.10;;;;;;;;;;5054098;28;20047;-61
2022/04/12 00:46:15;;;;;;;0.10;0.10;;;;;;;;;;5071879;28;20065;-62
2022/04/12 00:48:41;;;;;;;0.10;0.10;;;;;;;;;;5075254;28;20083;-60
2022/04/12 00:51:06;;;;;;;1.90;1.85;;;;;;;;;;5075462;28;20472;-61
2022/04/12 00:53:32;;;;;;;0.20;0.20;;;;;;;;;;5075494;28;20051;-61
2022/04/12 00:55:58;;;;;;;0.10;0.10;;;;;;;;;;5075594;28;20037;-61
2022/04/12 00:58:24;;;;;;;0.10;0.10;;;;;;;;;;5075397;28;20037;-61
2022/04/12 01:00:49;;;;;;;0.80;0.80;;;;;;;;;;5075075;28;20085;-62
2022/04/12 01:03:15;;;;;;;0.30;0.30;;;;;;;;;;5075282;28;20064;-61
2022/04/12 01:05:40;;;;;;;0.95;0.95;;;;;;;;;;5075173;28;20036;-61
2022/04/12 01:08:06;;;;;;;0.10;0.10;;;;;;;;;;5075313;28;20037;-61
2022/04/12 01:10:33;;;;;;;0.00;0.00;;;;;;;;;;5075113;28;20111;-62
2022/04/12 01:12:59;;;;;;;0.00;0.00;;;;;;;;;;5075202;28;20135;-61
2022/04/12 01:15:24;;;;;;;0.10;0.10;;;;;;;;;;5075058;28;20447;-63
2022/04/12 01:17:51;;;;;;;0.10;0.10;;;;;;;;;;5056994;28;20052;-61
2022/04/12 01:20:18;;;;;;;0.10;0.10;;;;;;;;;;5075211;28;20056;-61
2022/04/12 01:22:58;;;;;;;0.10;0.10;;;;;;;;;;5057132;28;20033;-62
2022/04/12 01:25:24;;;;;;;0.10;0.10;;;;;;;;;;5075007;28;20082;-62
2022/04/12 01:27:49;;;;;;;0.00;0.00;;;;;;;;;;5056947;28;20040;-61
2022/04/12 01:30:15;;;;;;;0.10;0.10;;;;;;;;;;5056461;28;20032;-61
2022/04/12 01:32:41;;;;;;;0.45;0.45;;;;;;;;;;5074530;28;20388;-62
2022/04/12 01:35:06;;;;;;;0.00;0.00;;;;;;;;;;5074616;28;20039;-61
2022/04/12 01:37:32;;;;;;;0.10;0.10;;;;;;;;;;5074713;28;20187;-62
2022/04/12 01:39:57;;;;;;;0.10;0.10;;;;;;;;;;5074634;28;20032;-61
2022/04/12 01:42:23;;;;;;;0.00;0.00;;;;;;;;;;5056654;28;20039;-61
2022/04/12 01:44:48;;;;;;;0.68;0.68;;;;;;;;;;5074554;28;20028;-62
2022/04/12 01:47:13;;;;;;;0.10;0.10;;;;;;;;;;5074803;28;20347;-62
2022/04/12 01:49:39;;;;;;;0.20;0.20;;;;;;;;;;5056898;28;20032;-61
2022/04/12 01:52:04;;;;;;;0.10;0.10;;;;;;;;;;5056559;28;20040;-62
2022/04/12 01:54:30;;;;;;;0.03;0.03;;;;;;;;;;5074523;28;20032;-62
2022/04/12 01:56:55;;;;;;;0.10;0.10;;;;;;;;;;5074506;28;20040;-61
2022/04/12 01:59:22;;;;;;;0.10;0.10;;;;;;;;;;5073789;28;20495;-62
2022/04/12 02:01:48;;;;;;;1.40;1.40;;;;;;;;;;5074329;28;20036;-62
2022/04/12 02:04:13;;;;;;;0.10;0.10;;;;;;;;;;5074321;28;20416;-60
2022/04/12 02:06:39;;;;;;;0.10;0.10;;;;;;;;;;5074357;28;20041;-60
2022/04/12 02:09:04;;;;;;;0.10;0.10;;;;;;;;;;5074461;28;20369;-62
2022/04/12 02:11:29;;;;;;;0.10;0.10;;;;;;;;;;5074219;28;20067;-62
2022/04/12 02:13:55;;;;;;;0.10;0.10;;;;;;;;;;5056105;28;20039;-62
2022/04/12 02:16:20;;;;;;;0.10;0.10;;;;;;;;;;5074059;28;20040;-62
2022/04/12 02:18:46;;;;;;;0.00;0.00;;;;;;;;;;5074175;28;20086;-62
2022/04/12 02:21:11;;;;;;;0.10;0.10;;;;;;;;;;5074171;28;20395;-62
2022/04/12 02:23:37;;;;;;;0.10;0.10;;;;;;;;;;5055969;28;20376;-61
2022/04/12 02:26:02;;;;;;;0.30;0.30;;;;;;;;;;5074123;28;20032;-62
2022/04/12 02:28:28;;;;;;;0.10;0.10;;;;;;;;;;5056139;28;20115;-62
2022/04/12 02:30:53;;;;;;;0.10;0.10;;;;;;;;;;5073721;28;20436;-62
2022/04/12 02:33:19;;;;;;;0.10;0.10;;;;;;;;;;5073842;28;20040;-61
2022/04/12 02:35:44;;;;;;;0.10;0.10;;;;;;;;;;5056030;28;20047;-62
2022/04/12 02:38:10;;;;;;;0.00;0.00;;;;;;;;;;5073394;28;20032;-61
2022/04/12 02:40:35;;;;;;;0.85;0.80;;;;;;;;;;5055838;28;20037;-62
2022/04/12 02:43:01;;;;;;;0.10;0.10;;;;;;;;;;5073742;28;20043;-63
2022/04/12 02:45:26;;;;;;;0.10;0.10;;;;;;;;;;5073547;28;20476;-63
2022/04/12 02:47:52;;;;;;;0.10;0.10;;;;;;;;;;5055896;28;20077;-62
2022/04/12 02:50:17;;;;;;;0.10;0.10;;;;;;;;;;5055856;28;20036;-62
2022/04/12 02:52:42;;;;;;;0.10;0.10;;;;;;;;;;5073685;28;20028;-61
2022/04/12 02:55:08;;;;;;;0.10;0.10;;;;;;;;;;5073610;28;20036;-62
2022/04/12 02:57:33;;;;;;;0.10;0.10;;;;;;;;;;5073540;28;20503;-61
2022/04/12 02:59:59;;;;;;;0.10;0.10;;;;;;;;;;5073400;28;20040;-61
2022/04/12 03:02:25;;;;;;;0.10;0.10;;;;;;;;;;5070603;28;20103;-62
2022/04/12 03:04:50;;;;;;;0.10;0.10;;;;;;;;;;5069448;28;20121;-63
2022/04/12 03:07:15;;;;;;;0.00;0.00;;;;;;;;;;5069173;28;20029;-62
2022/04/12 03:09:41;;;;;;;0.10;0.10;;;;;;;;;;5068186;28;20086;-62
2022/04/12 03:12:07;;;;;;;0.10;0.10;;;;;;;;;;5069096;28;20032;-62
2022/04/12 03:14:33;;;;;;;0.10;0.10;;;;;;;;;;5069706;28;20476;-62
2022/04/12 03:16:58;;;;;;;0.10;0.10;;;;;;;;;;5069267;28;20107;-62
2022/04/12 03:19:24;;;;;;;0.10;0.10;;;;;;;;;;5069433;28;20067;-62
2022/04/12 03:21:49;;;;;;;0.10;0.10;;;;;;;;;;5069140;28;20035;-62
2022/04/12 03:24:15;;;;;;;0.10;0.10;;;;;;;;;;5069158;28;20028;-62
2022/04/12 03:26:40;;;;;;;0.10;0.10;;;;;;;;;;5069152;28;20031;-62
2022/04/12 03:29:07;;;;;;;0.10;0.10;;;;;;;;;;5051026;28;20037;-62
2022/04/12 03:31:32;;;;;;;0.10;0.10;;;;;;;;;;5068685;28;20028;-62
2022/04/12 03:33:58;;;;;;;0.10;0.10;;;;;;;;;;5069090;28;20550;-61
2022/04/12 03:36:23;;;;;;;0.30;0.30;;;;;;;;;;5050780;28;20060;-62
2022/04/12 03:38:49;;;;;;;4.32;4.10;;;;;;;;;;5069382;28;20048;-62
2022/04/12 03:41:21;;;;;;;0.10;0.10;;;;;;;;;;5068983;28;20523;-65
2022/04/12 03:43:47;;;;;;;0.10;0.10;;;;;;;;;;5069406;28;20047;-61
2022/04/12 03:46:12;;;;;;;0.10;0.10;;;;;;;;;;5068594;28;20017;-61
2022/04/12 03:48:38;;;;;;;0.10;0.10;;;;;;;;;;5068899;28;20044;-62
2022/04/12 03:51:04;;;;;;;0.10;0.10;;;;;;;;;;5068770;28;20392;-62
2022/04/12 03:53:29;;;;;;;0.50;0.50;;;;;;;;;;5068934;28;20226;-61
2022/04/12 03:55:55;;;;;;;0.10;0.10;;;;;;;;;;5068631;28;20028;-61
2022/04/12 03:58:21;;;;;;;0.10;0.10;;;;;;;;;;5068189;28;20032;-63
2022/04/12 04:00:46;;;;;;;0.10;0.10;;;;;;;;;;5068391;28;20396;-62
2022/04/12 04:03:12;;;;;;;1.00;1.00;;;;;;;;;;5068606;28;20027;-61
2022/04/12 04:05:37;;;;;;;0.10;0.10;;;;;;;;;;5068347;28;20119;-61
2022/04/12 04:08:03;;;;;;;0.10;0.10;;;;;;;;;;5068192;28;20460;-61
2022/04/12 04:10:28;;;;;;;0.10;0.10;;;;;;;;;;5067910;28;20044;-61
2022/04/12 04:12:54;;;;;;;0.10;0.10;;;;;;;;;;5068523;28;20130;-61
2022/04/12 04:15:20;;;;;;;0.45;0.45;;;;;;;;;;5067714;28;20033;-64
2022/04/12 04:17:45;;;;;;;0.10;0.10;;;;;;;;;;5068151;28;20033;-62
2022/04/12 04:20:12;;;;;;;0.10;0.10;;;;;;;;;;5068165;28;20029;-63
2022/04/12 04:22:38;;;;;;;0.10;0.10;;;;;;;;;;5067911;28;20523;-62
2022/04/12 04:25:03;;;;;;;0.10;0.10;;;;;;;;;;5068233;28;20112;-62
2022/04/12 04:27:29;;;;;;;0.10;0.10;;;;;;;;;;5068061;28;20115;-62
2022/04/12 04:29:58;;;;;;;0.10;0.10;;;;;;;;;;5067826;28;20116;-62
2022/04/12 04:32:23;;;;;;;0.10;0.10;;;;;;;;;;5067691;28;20472;-65
2022/04/12 04:34:49;;;;;;;0.10;0.10;;;;;;;;;;5068138;28;20040;-61
2022/04/12 04:37:14;;;;;;;0.10;0.10;;;;;;;;;;5067691;28;20504;-62
2022/04/12 04:39:40;;;;;;;0.10;0.10;;;;;;;;;;5067554;28;20107;-62
2022/04/12 04:42:05;;;;;;;0.10;0.10;;;;;;;;;;5067700;28;20043;-65
2022/04/12 04:44:31;;;;;;;0.08;0.08;;;;;;;;;;5067127;28;20032;-63
2022/04/12 04:46:57;;;;;;;0.10;0.10;;;;;;;;;;5048704;28;20082;-61
2022/04/12 04:49:22;;;;;;;0.10;0.10;;;;;;;;;;5066153;28;20043;-61
2022/04/12 04:51:48;;;;;;;0.10;0.10;;;;;;;;;;5067048;28;20033;-64
2022/04/12 04:54:13;;;;;;;0.10;0.10;;;;;;;;;;5065656;28;20025;-61
2022/04/12 04:56:39;;;;;;;0.10;0.10;;;;;;;;;;5065683;28;20041;-62
2022/04/12 04:59:04;;;;;;;0.10;0.10;;;;;;;;;;5065869;28;20064;-63
2022/04/12 05:01:30;;;;;;;0.10;0.10;;;;;;;;;;5030749;28;20043;-61
2022/04/12 05:03:55;;;;;;;0.95;0.90;;;;;;;;;;5047987;28;20383;-62
2022/04/12 05:06:21;;;;;;;0.10;0.10;;;;;;;;;;5065221;28;20037;-61
2022/04/12 05:08:46;;;;;;;0.10;0.10;;;;;;;;;;5067486;28;20036;-61
2022/04/12 05:11:12;;;;;;;0.10;0.10;;;;;;;;;;5067678;28;20089;-67
2022/04/12 05:13:37;;;;;;;0.10;0.10;;;;;;;;;;5064799;28;20048;-59
2022/04/12 05:16:03;;;;;;;0.10;0.10;;;;;;;;;;5073805;28;20040;-62
2022/04/12 05:18:29;;;;;;;0.10;0.10;;;;;;;;;;5085741;28;20178;-64
2022/04/12 05:20:54;;;;;;;0.10;0.10;;;;;;;;;;5086092;28;20040;-62
2022/04/12 05:23:20;;;;;;;0.10;0.10;;;;;;;;;;5085502;28;20077;-62
2022/04/12 05:25:45;;;;;;;0.10;0.10;;;;;;;;;;5085823;28;20030;-63
2022/04/12 05:28:11;;;;;;;0.10;0.10;;;;;;;;;;5067495;28;20036;-63
2022/04/12 05:30:36;;;;;;;0.10;0.10;;;;;;;;;;5085765;28;20494;-62
2022/04/12 05:33:02;;;;;;;0.10;0.10;;;;;;;;;;5058354;28;20082;-62
2022/04/12 05:35:27;;;;;;;0.10;0.10;;;;;;;;;;5076146;28;20035;-61
2022/04/12 05:37:53;;;;;;;0.10;0.10;;;;;;;;;;5088987;28;20557;-62
2022/04/12 05:40:20;;;;;;;0.43;0.43;;;;;;;;;;5088756;28;20060;-62
2022/04/12 05:42:45;;;;;;;0.10;0.10;;;;;;;;;;5088752;28;20070;-62
2022/04/12 05:45:11;;;;;;;0.10;0.10;;;;;;;;;;5076848;28;20572;-63
2022/04/12 05:47:49;;;;;;;0.10;0.10;;;;;;;;;;5068295;28;20036;-62
2022/04/12 05:50:15;;;;;;;0.10;0.10;;;;;;;;;;5077763;28;20043;-62
2022/04/12 05:52:41;;;;;;;0.10;0.10;;;;;;;;;;5088872;28;20092;-63
2022/04/12 05:55:07;;;;;;;0.10;0.10;;;;;;;;;;5070592;28;20040;-62
2022/04/12 05:57:34;;;;;;;0.10;0.10;;;;;;;;;;5088781;28;20578;-63
2022/04/12 06:00:00;;;;;;;0.10;0.10;;;;;;;;;;5074596;28;20032;-63
2022/04/12 06:02:25;;;;;;;0.10;0.10;;;;;;;;;;5077223;28;20056;-63
2022/04/12 06:04:51;;;;;;;0.10;0.10;;;;;;;;;;5078626;28;20024;-62
2022/04/12 06:07:16;;;;;;;0.10;0.10;;;;;;;;;;5074696;28;20039;-63
2022/04/12 06:09:42;;;;;;;0.10;0.10;;;;;;;;;;5073350;28;20052;-62
2022/04/12 06:12:07;;;;;;;0.10;0.10;;;;;;;;;;5057612;28;20028;-63
2022/04/12 06:14:33;;;;;;;0.10;0.10;;;;;;;;;;5074244;28;20041;-64
2022/04/12 06:16:58;;;;;;;0.00;0.00;;;;;;;;;;5068589;28;20427;-63
2022/04/12 06:19:24;;;;;;;0.10;0.10;;;;;;;;;;5074431;28;20059;-63
2022/04/12 06:21:49;;;;;;;0.10;0.10;;;;;;;;;;5080163;28;20132;-63
2022/04/12 06:24:15;;;;;;;0.10;0.10;;;;;;;;;;5077142;28;20040;-63
2022/04/12 06:26:40;;;;;;;0.10;0.10;;;;;;;;;;5074454;28;20160;-63
2022/04/12 06:29:05;;;;;;;0.10;0.10;;;;;;;;;;5078922;28;20487;-63
2022/04/12 06:31:31;;;;;;;0.10;0.10;;;;;;;;;;5088051;28;20085;-66
2022/04/12 06:33:56;;;;;;;0.20;0.20;;;;;;;;;;5088596;28;20127;-64
2022/04/12 06:36:22;;;;;;;0.10;0.10;;;;;;;;;;5087404;28;20111;-63
2022/04/12 06:38:47;;;;;;;0.10;0.10;;;;;;;;;;5088052;28;20078;-63
2022/04/12 06:41:13;;;;;;;0.63;0.63;;;;;;;;;;5087911;28;20039;-63
2022/04/12 06:43:38;;;;;;;0.10;0.10;;;;;;;;;;5087484;28;20058;-64
2022/04/12 06:46:04;;;;;;;0.15;0.15;;;;;;;;;;5076268;28;20526;-63
2022/04/12 06:48:30;;;;;;;0.10;0.10;;;;;;;;;;5087181;28;20036;-64
2022/04/12 06:50:55;;;;;;;0.10;0.10;;;;;;;;;;5067842;28;20033;-63
2022/04/12 06:53:23;;;;;;;2.05;1.95;;;;;;;;;;5067485;28;20408;-63
2022/04/12 06:55:48;;;;;;;0.20;0.20;;;;;;;;;;5072636;28;20074;-62
2022/04/12 06:58:14;;;;;;;0.10;0.10;;;;;;;;;;5087414;28;20063;-64
2022/04/12 07:00:40;;;;;;;0.20;0.20;;;;;;;;;;5058466;28;20051;-63
2022/04/12 07:03:06;;;;;;;0.90;0.85;;;;;;;;;;5076842;28;20029;-62
2022/04/12 07:05:31;;;;;;;0.20;0.20;;;;;;;;;;5077039;28;20032;-63
2022/04/12 07:07:57;;;;;;;0.10;0.10;;;;;;;;;;5055144;28;20114;-62
2022/04/12 07:10:22;;;;;;;0.10;0.10;;;;;;;;;;5072181;28;20035;-62
2022/04/12 07:12:53;;;;;;;0.10;0.10;;;;;;;;;;5066611;28;20024;-63
2022/04/12 07:15:19;;;;;;;0.20;0.20;;;;;;;;;;5073294;28;20032;-63
2022/04/12 07:17:44;;;;;;;0.20;0.20;;;;;;;;;;5074370;28;20025;-64
2022/04/12 07:20:10;;;;;;;0.10;0.10;;;;;;;;;;5076338;28;20036;-64
2022/04/12 07:22:36;;;;;;;0.20;0.20;;;;;;;;;;5066978;28;20446;-63
2022/04/12 07:25:01;;;;;;;0.20;0.20;;;;;;;;;;5078589;28;20024;-63
2022/04/12 07:27:27;;;;;;;0.30;0.30;;;;;;;;;;5074299;28;20506;-63
2022/04/12 07:29:52;;;;;;;0.20;0.20;;;;;;;;;;5073328;28;20039;-63
2022/04/12 07:32:18;;;;;;;0.20;0.20;;;;;;;;;;5066211;28;20028;-64
2022/04/12 07:34:43;;;;;;;2.85;0.40;;;;;;;;;;5048836;28;20153;-63
2022/04/12 07:37:09;;;;;;;0.10;0.10;;;;;;;;;;5066459;28;20028;-63
2022/04/12 07:39:34;;;;;;;0.10;0.10;;;;;;;;;;5069400;28;20032;-63
2022/04/12 07:42:00;;;;;;;0.13;0.13;;;;;;;;;;5073938;28;20040;-63
2022/04/12 07:44:25;;;;;;;0.20;0.20;;;;;;;;;;5070340;28;20340;-63
2022/04/12 07:46:51;;;;;;;0.30;0.30;;;;;;;;;;5077073;28;20036;-63
2022/04/12 07:49:17;;;;;;;0.13;0.13;;;;;;;;;;5077156;28;20055;-63
2022/04/12 07:51:42;;;;;;;0.10;0.10;;;;;;;;;;5070745;28;20036;-63
2022/04/12 07:54:08;;;;;;;0.17;0.17;;;;;;;;;;5066749;28;20134;-63
2022/04/12 07:56:34;;;;;;;0.10;0.10;;;;;;;;;;5070556;28;20046;-64
2022/04/12 07:58:59;;;;;;;0.10;0.10;;;;;;;;;;5077481;28;20036;-64
2022/04/12 08:01:25;;;;;;;0.13;0.13;;;;;;;;;;5080216;28;20032;-64
2022/04/12 08:03:50;;;;;;;1.10;0.73;;;;;;;;;;5065548;28;20423;-63
2022/04/12 08:06:15;;;;;;;1.15;0.85;;;;;;;;;;5058864;28;20032;-65
2022/04/12 08:08:41;;;;;;;0.10;0.10;;;;;;;;;;5074581;28;20490;-64
2022/04/12 08:11:07;;;;;;;0.10;0.10;;;;;;;;;;5085061;28;20128;-63
2022/04/12 08:13:33;;;;;;;0.35;0.35;;;;;;;;;;5075374;28;20684;-65
2022/04/12 08:15:58;;;;;;;0.10;0.10;;;;;;;;;;5073094;28;20028;-64
2022/04/12 08:18:24;;;;;;;0.10;0.10;;;;;;;;;;5086790;28;20017;-63
2022/04/12 08:20:54;;;;;;;0.68;0.68;;;;;;;;;;5085270;28;20234;-63
2022/04/12 08:23:23;;;;;;;1.10;1.10;;;;;;;;;;5066289;28;20063;-64
2022/04/12 08:25:49;;;;;;;0.10;0.10;;;;;;;;;;5084766;28;20055;-64
2022/04/12 08:28:14;;;;;;;0.13;0.13;;;;;;;;;;5066061;28;20102;-64
2022/04/12 08:30:40;;;;;;;0.15;0.15;;;;;;;;;;5084435;28;20119;-64
2022/04/12 08:33:05;;;;;;;0.10;0.10;;;;;;;;;;5084695;28;20028;-63
2022/04/12 08:35:31;;;;;;;0.10;0.10;;;;;;;;;;5067317;28;20036;-63
2022/04/12 08:37:56;;;;;;;0.10;0.10;;;;;;;;;;5086830;28;20476;-63
2022/04/12 08:40:22;;;;;;;2.83;2.20;;;;;;;;;;5086160;28;20032;-63
2022/04/12 08:42:47;;;;;;;0.15;0.15;;;;;;;;;;5087914;28;20028;-63
2022/04/12 08:45:13;;;;;;;0.10;0.10;;;;;;;;;;5087712;28;20043;-63
2022/04/12 08:47:40;;;;;;;0.15;0.15;;;;;;;;;;5085978;28;20032;-63
2022/04/12 08:50:06;;;;;;;0.10;0.10;;;;;;;;;;5086594;28;20043;-63
2022/04/12 08:52:31;;;;;;;0.10;0.10;;;;;;;;;;5078716;28;20036;-63
2022/04/12 08:54:57;;;;;;;0.20;0.20;;;;;;;;;;5065685;28;20044;-63
2022/04/12 08:57:22;;;;;;;0.20;0.20;;;;;;;;;;5065782;28;20488;-62
2022/04/12 08:59:48;;;;;;;0.10;0.10;;;;;;;;;;5065924;28;20151;-63
2022/04/12 09:02:13;;;;;;;0.10;0.10;;;;;;;;;;5065944;28;20540;-63
2022/04/12 09:04:39;;;;;;;0.55;0.55;;;;;;;;;;5065589;28;20048;-63
2022/04/12 09:07:08;;;;;;;0.30;0.30;;;;;;;;;;5065591;28;20028;-63
2022/04/12 09:09:34;;;;;;;0.13;0.13;;;;;;;;;;5069209;28;20119;-62
2022/04/12 09:12:02;;;;;;;0.47;0.47;;;;;;;;;;5071313;28;20159;-63
2022/04/12 09:14:40;;;;;;;0.40;0.40;;;;;;;;;;5070306;28;20044;-63
2022/04/12 09:17:06;;;;;;;0.20;0.20;;;;;;;;;;5069371;28;20036;-63
2022/04/12 09:19:38;;;;;;;0.20;0.20;;;;;;;;;;5069195;28;20093;-63
2022/04/12 09:22:14;;;;;;;0.10;0.10;;;;;;;;;;5068485;28;20030;-63
2022/04/12 09:24:47;;;;;;;0.20;0.20;;;;;;;;;;5069506;28;20052;-63
2022/04/12 09:27:16;;;;;;;0.40;0.40;;;;;;;;;;5069648;28;20360;-63
2022/04/12 09:29:45;;;;;;;0.43;0.28;;;;;;;;;;5069184;28;20476;-63
2022/04/12 09:32:13;;;;;;;0.20;0.20;;;;;;;;;;5070562;28;20078;-63
2022/04/12 09:34:39;;;;;;;0.10;0.10;;;;;;;;;;5070908;28;20040;-63
2022/04/12 09:37:15;;;;;;;0.20;0.20;;;;;;;;;;5070730;28;20028;-63
2022/04/12 09:39:40;;;;;;;0.10;0.10;;;;;;;;;;5071110;28;20044;-63
2022/04/12 09:42:06;;;;;;;0.20;0.20;;;;;;;;;;5070756;28;20276;-62
2022/04/12 09:44:31;;;;;;;0.20;0.20;;;;;;;;;;5070923;28;20055;-63
2022/04/12 09:46:57;;;;;;;0.20;0.20;;;;;;;;;;5071180;28;20506;-63
2022/04/12 09:49:23;;;;;;;0.10;0.10;;;;;;;;;;5070785;28;20041;-63
2022/04/12 09:51:49;;;;;;;0.13;0.13;;;;;;;;;;5070189;28;20035;-64
2022/04/12 09:54:21;;;;;;;0.10;0.10;;;;;;;;;;5070208;28;20044;-63
2022/04/12 09:56:47;;;;;;;0.52;0.45;;;;;;;;;;5070386;28;20039;-64
2022/04/12 09:59:12;;;;;;;3.00;1.42;;;;;;;;;;5070718;28;20036;-63
2022/04/12 10:01:41;;;;;;;0.20;0.20;;;;;;;;;;5052292;28;20029;-63
2022/04/12 10:04:10;;;;;;;0.10;0.10;;;;;;;;;;5070679;28;20115;-63
2022/04/12 10:06:40;;;;;;;0.30;0.30;;;;;;;;;;5070309;28;20538;-64
2022/04/12 10:09:07;;;;;;;0.35;0.35;;;;;;;;;;5070494;28;20480;-63
2022/04/12 10:11:33;;;;;;;2.22;0.93;;;;;;;;;;5070536;28;20078;-63
2022/04/12 10:14:01;;;;;;;1.33;1.23;;;;;;;;;;5070285;28;20040;-63
2022/04/12 10:16:27;;;;;;;0.63;0.63;;;;;;;;;;5052222;28;20025;-64
2022/04/12 10:18:54;;;;;;;0.40;0.40;;;;;;;;;;5069710;28;20044;-64
2022/04/12 10:21:21;;;;;;;0.20;0.20;;;;;;;;;;5070004;28;20037;-64
2022/04/12 10:23:50;;;;;;;0.50;0.50;;;;;;;;;;5070544;28;20098;-64
2022/04/12 10:26:19;;;;;;;0.20;0.20;;;;;;;;;;5069776;28;20044;-64
2022/04/12 10:28:44;;;;;;;0.22;0.22;;;;;;;;;;5052332;28;20043;-64
2022/04/12 10:31:13;;;;;;;2.60;2.38;;;;;;;;;;5070162;28;20029;-64
2022/04/12 10:33:38;;;;;;;0.43;0.43;;;;;;;;;;5069831;28;20123;-64
2022/04/12 10:36:06;;;;;;;8.25;6.13;;;;;;;;;;5069728;28;20201;-64
2022/04/12 10:38:39;;;;;;;0.25;0.25;;;;;;;;;;5071768;28;20036;-64
2022/04/12 10:41:15;;;;;;;0.20;0.20;;;;;;;;;;5050628;28;20398;-64
2022/04/12 10:43:41;;;;;;;0.30;0.30;;;;;;;;;;5068252;28;20040;-63
2022/04/12 10:46:07;;;;;;;0.22;0.22;;;;;;;;;;5068169;28;20047;-63
2022/04/12 10:48:36;;;;;;;0.28;0.28;;;;;;;;;;5067875;28;20592;-65
2022/04/12 10:51:02;;;;;;;0.40;0.40;;;;;;;;;;5068254;28;20044;-64
2022/04/12 10:53:39;;;;;;;0.30;0.30;;;;;;;;;;5068057;28;20040;-64
2022/04/12 10:56:08;;;;;;;0.30;0.30;;;;;;;;;;5069709;28;20032;-64
2022/04/12 10:58:33;;;;;;;0.40;0.40;;;;;;;;;;5070150;28;20040;-64
2022/04/12 11:00:59;;;;;;;0.30;0.30;;;;;;;;;;5069147;28;20043;-64
2022/04/12 11:03:43;;;;;;;0.30;0.30;;;;;;;;;;5069430;28;20025;-63
2022/04/12 11:06:35;;;;;;;0.30;0.30;;;;;;;;;;5069741;28;20036;-64
2022/04/12 11:09:00;;;;;;;0.20;0.20;;;;;;;;;;5068009;28;20044;-64
2022/04/12 11:11:27;;;;;;;0.35;0.35;;;;;;;;;;5089051;28;20081;-63
2022/04/12 11:13:53;;;;;;;0.20;0.20;;;;;;;;;;5086212;28;20047;-64
2022/04/12 11:16:19;;;;;;;0.40;0.40;;;;;;;;;;5085726;28;20032;-64
2022/04/12 11:18:44;;;;;;;0.43;0.43;;;;;;;;;;5069720;28;20093;-64
2022/04/12 11:21:10;;;;;;;0.32;0.32;;;;;;;;;;5067227;28;20123;-65
2022/04/12 11:23:44;;;;;;;0.40;0.40;;;;;;;;;;5066913;28;20059;-64
2022/04/12 11:26:26;;;;;;;0.50;0.50;;;;;;;;;;5066586;28;20036;-64
2022/04/12 11:28:51;;;;;;;0.55;0.55;;;;;;;;;;5066841;28;20071;-64
2022/04/12 11:31:17;;;;;;;0.52;0.40;;;;;;;;;;5070459;28;20060;-64
2022/04/12 11:33:43;;;;;;;0.30;0.30;;;;;;;;;;5075599;28;20044;-64
2022/04/12 11:36:09;;;;;;;0.32;0.32;;;;;;;;;;5073427;28;20562;-65
2022/04/12 11:38:36;;;;;;;0.40;0.40;;;;;;;;;;5085528;28;20111;-64
2022/04/12 11:41:01;;;;;;;0.30;0.30;;;;;;;;;;5087213;28;20054;-64
2022/04/12 11:43:27;;;;;;;0.47;0.43;;;;;;;;;;5086709;28;20059;-64
2022/04/12 11:45:57;;;;;;;0.20;0.20;;;;;;;;;;5075869;28;20086;-65
2022/04/12 11:48:26;;;;;;;0.40;0.40;;;;;;;;;;5081890;28;20039;-65
2022/04/12 11:50:51;;;;;;;;;;;;;;;;;;5081005;28;20028;-65
2022/04/12 11:53:17;;;;;;;0.35;0.35;;;;;;;;;;5083775;28;19939;-65
2022/04/12 11:55:44;;;;;;;0.40;0.40;;;;;;;;;;5084569;28;20028;-64
2022/04/12 11:58:10;;;;;;;0.60;0.60;;;;;;;;;;5084008;28;20667;-64
2022/04/12 12:00:35;;;;;;;2.78;2.58;;;;;;;;;;5051844;28;20032;-64
2022/04/12 12:03:01;;;;;;;0.30;0.30;;;;;;;;;;5079898;28;20589;-64
2022/04/12 12:05:26;;;;;;;1.95;0.30;;;;;;;;;;5074705;28;20105;-65
2022/04/12 12:07:56;;;;;;;0.30;0.30;;;;;;;;;;5069497;28;20058;-64
2022/04/12 12:10:22;;;;;;;0.40;0.40;;;;;;;;;;5063454;28;20021;-65
2022/04/12 12:12:48;;;;;;;0.30;0.30;;;;;;;;;;5064599;28;20466;-64
2022/04/12 12:15:13;;;;;;;1.10;0.60;;;;;;;;;;5078256;28;20467;-64
2022/04/12 12:17:39;;;;;;;0.30;0.30;;;;;;;;;;5068274;28;20036;-64
2022/04/12 12:20:07;;;;;;;2.40;0.80;;;;;;;;;;5065794;28;20070;-64
2022/04/12 12:22:39;;;;;;;0.30;0.30;;;;;;;;;;5069821;28;20036;-66
2022/04/12 12:25:05;;;;;;;0.28;0.28;;;;;;;;;;5084270;28;20063;-66
2022/04/12 12:27:32;;;;;;;0.45;0.45;;;;;;;;;;5060587;28;20054;-65
2022/04/12 12:30:08;;;;;;;0.20;0.20;;;;;;;;;;5070475;28;20028;-66
2022/04/12 12:32:38;;;;;;;0.35;0.35;;;;;;;;;;5073000;28;20024;-65
2022/04/12 12:35:14;;;;;;;0.30;0.30;;;;;;;;;;5071940;28;20036;-65
2022/04/12 12:37:40;;;;;;;0.25;0.25;;;;;;;;;;5065686;28;20113;-65
2022/04/12 12:40:26;;;;;;;0.30;0.30;;;;;;;;;;5066475;28;20032;-66
2022/04/12 12:42:52;;;;;;;0.30;0.30;;;;;;;;;;5068076;28;20419;-65
2022/04/12 12:45:20;;;;;;;0.30;0.30;;;;;;;;;;5069425;28;20043;-65
2022/04/12 12:47:46;;;;;;;0.57;0.57;;;;;;;;;;5075439;28;20036;-67
2022/04/12 12:50:13;;;;;;;0.30;0.30;;;;;;;;;;5089405;28;20055;-67
2022/04/12 12:52:39;;;;;;;0.22;0.22;;;;;;;;;;5089743;28;20070;-66
2022/04/12 12:55:08;;;;;;;0.20;0.20;;;;;;;;;;5075448;28;20040;-64
2022/04/12 12:57:37;;;;;;;0.30;0.30;;;;;;;;;;5076282;28;20538;-64
2022/04/12 13:00:07;;;;;;;0.30;0.30;;;;;;;;;;5076486;28;20606;-66
2022/04/12 13:02:34;;;;;;;0.30;0.30;;;;;;;;;;5077956;28;20035;-66
2022/04/12 13:05:02;;;;;;;0.30;0.30;;;;;;;;;;5051109;28;20063;-65
2022/04/12 13:07:31;;;;;;;0.43;0.43;;;;;;;;;;5069252;28;20041;-65
2022/04/12 13:10:05;;;;;;;0.30;0.30;;;;;;;;;;5069067;28;20032;-65
2022/04/12 13:12:30;;;;;;;0.30;0.30;;;;;;;;;;5068307;28;20037;-65
2022/04/12 13:14:56;;;;;;;0.30;0.30;;;;;;;;;;5050522;28;20037;-64
2022/04/12 13:17:21;;;;;;;0.30;0.30;;;;;;;;;;5075889;28;20384;-65
2022/04/12 13:19:47;;;;;;;0.40;0.40;;;;;;;;;;5066891;28;20098;-64
2022/04/12 13:22:12;;;;;;;0.40;0.40;;;;;;;;;;5067054;28;20041;-64
2022/04/12 13:24:38;;;;;;;0.30;0.30;;;;;;;;;;5069038;28;20036;-64
2022/04/12 13:27:03;;;;;;;0.25;0.25;;;;;;;;;;5070374;28;20044;-65
2022/04/12 13:29:29;;;;;;;0.20;0.20;;;;;;;;;;5070432;28;20041;-64
2022/04/12 13:31:55;;;;;;;0.40;0.40;;;;;;;;;;5070109;28;20039;-64
2022/04/12 13:34:20;;;;;;;0.50;0.50;;;;;;;;;;5068487;28;20036;-65
2022/04/12 13:36:46;;;;;;;0.30;0.30;;;;;;;;;;5068603;28;20033;-64
2022/04/12 13:39:11;;;;;;;0.20;0.20;;;;;;;;;;5068631;28;20082;-63
2022/04/12 13:41:37;;;;;;;0.20;0.20;;;;;;;;;;5068237;28;20043;-64
2022/04/12 13:44:03;;;;;;;0.22;0.22;;;;;;;;;;5069083;28;20017;-64
2022/04/12 13:46:28;;;;;;;0.28;0.28;;;;;;;;;;5050576;28;20089;-64
2022/04/12 13:48:54;;;;;;;0.30;0.30;;;;;;;;;;5068299;28;20054;-62
2022/04/12 13:51:19;;;;;;;0.30;0.30;;;;;;;;;;5070077;28;20039;-64
2022/04/12 13:53:45;;;;;;;0.20;0.20;;;;;;;;;;5069533;28;20048;-64
2022/04/12 13:56:10;;;;;;;41.95;9.43;;;;;;;;;;5070439;28;20032;-63
2022/04/12 13:58:36;;;;;;;0.20;0.20;;;;;;;;;;5068811;28;20100;-63
2022/04/12 14:01:01;;;;;;;0.20;0.20;;;;;;;;;;5070252;28;20687;-64
2022/04/12 14:03:27;;;;;;;0.20;0.20;;;;;;;;;;5051413;28;20026;-64
2022/04/12 14:05:53;;;;;;;0.20;0.20;;;;;;;;;;5070049;28;20078;-64
2022/04/12 14:08:18;;;;;;;0.25;0.25;;;;;;;;;;5078707;28;20051;-64
2022/04/12 14:10:44;;;;;;;0.20;0.20;;;;;;;;;;5075861;28;20029;-63
2022/04/12 14:13:10;;;;;;;0.30;0.30;;;;;;;;;;5089356;28;20364;-63
2022/04/12 14:15:36;;;;;;;0.40;0.40;;;;;;;;;;5082023;28;20067;-65
2022/04/12 14:18:01;;;;;;;0.20;0.20;;;;;;;;;;5087482;28;20032;-65
2022/04/12 14:20:27;;;;;;;0.70;0.70;;;;;;;;;;5072105;28;21034;-65
2022/04/12 14:22:53;;;;;;;1.75;0.50;;;;;;;;;;5077944;28;20433;-64
2022/04/12 14:25:19;;;;;;;0.30;0.30;;;;;;;;;;5082239;28;20059;-65
2022/04/12 14:27:44;;;;;;;0.25;0.25;;;;;;;;;;5080564;28;20036;-64
2022/04/12 14:30:10;;;;;;;0.28;0.28;;;;;;;;;;5089176;28;20077;-64
2022/04/12 14:32:35;;;;;;;0.28;0.28;;;;;;;;;;5089934;28;20024;-64
2022/04/12 14:35:01;;;;;;;0.40;0.40;;;;;;;;;;5089110;28;20024;-65
2022/04/12 14:37:27;;;;;;;0.25;0.25;;;;;;;;;;5089515;28;20546;-64
2022/04/12 14:39:52;;;;;;;0.30;0.30;;;;;;;;;;5089925;28;20103;-64